Ely Airport Yelland Field
KELY : rendu visible

Aérodrome :











RETROUVEZ-NOUS SUR...

 
LOGIN :

S'inscrire | Disclaimer

   EN    FR    IT 

 









Légende :    VFR   VFR Marginal   IFR   IFR Intensif   IFR Très Intensif
Visi : 
Plafond : 
>= 8 km
>= 3000ft
5 à 8 km
1000 à 3000 ft
1500m à 5 km
500 à 1000 ft
800 à 1500m
200 à 500 ft
< 800m
< 200 ft
Symboles :   Orages  Brouillard  Fortes neiges  Fortes précipitations  Vent > 20 kt






- Altitude de l'aérodrome : 6259 ft


KELY - Ely Yelland Field

DERNIER METAR :
  • 211629Z AUTO 00000KT 1SM -SN BR VV020 00/M01 A2985 RMK AO2 P0002 T00001006

METARs EXPIRÉS :
  • 211604Z AUTO 00000KT 3/4SM -SN BR FEW003 OVC015 00/M01 A2985 RMK AO2 P0001 T00001006
  • 211553Z AUTO 00000KT 3/4SM -SN BR FEW003 OVC014 00/M01 A2984 RMK AO2 SLP101 P0004 T00001006
  • 211545Z AUTO 00000KT 3/4SM -SN BR SCT003 OVC014 00/M01 A2984 RMK AO2 P0004 T00001006
  • 211453Z AUTO 00000KT 1/2SM SN FZFG VV013 M01/M01 A2982 RMK AO2 SLP093 P0004 60015 T10061006 51013
  • 211431Z AUTO 02003KT 1SM -SN BR FEW003 OVC012 M01/M01 A2982 RMK AO2 P0003 T10061006
  • 211424Z AUTO 02004KT 1SM -SN BR FEW003 BKN009 OVC014 M01/M01 A2982 RMK AO2 P0002 T10061006
  • 211353Z AUTO 01004KT 1SM -SN BR FEW002 OVC012 M01/M01 A2980 RMK AO2 SLP086 P0006 T10061006
  • 211343Z AUTO 03006KT 3/4SM -SN BR VV011 M01/M01 A2980 RMK AO2 P0005 T10061006

TAF KELY
Valide du 21 à 16h jusqu'au 22 à 12h UTC


211628Z 2116/2212 00000KT 3/4SM -SN SCT003 OVC015
FM211800 00000KT 3SM -SN SCT001 OVC005
TEMPO 2118/2119 1SM -SN OVC001
FM211900 00000KT P6SM BKN015
FM212000 04006KT P6SM VCSH SCT025 OVC040
FM220200 17009KT P6SM VCFG BKN050



MET'MAP, la Météo Aéronautique d'un coup d'oeil ! - Copyright ORBIFLY Décembre 2007 - Disclaimer

ORBIFLY MET'MAP TEAM :

Programmation & Développement : Alexandra Zaïnal
Conception & Développement : Baudouin d'Aumeries
Co-Programmation & Développement : Marc-Olivier Méhu
Soutien technique & logistique : Manuel Goepfert

Contact : metmap@orbifly.com




SOURCES & CREDITS :

   NOAA       Earth
Advisory